Time;durP1;ratioP1;P1;durP2;ratioP2;P2;SDS_P1;SDS_P2;PMS_P1;PMS_P2;Temp;Humidity;BMP_temperature;BMP_pressure;BME280_temperature;BME280_humidity;BME280_pressure;Samples;Min_cycle;Max_cycle;Signal;HPM_P1;HPM_P2
2022/10/11 00:01:47;;;;;;;36.50;19.52;;;;;;;12.81;100.00;98352.88;5064152;28;20461;-79
2022/10/11 00:04:12;;;;;;;38.00;19.98;;;;;;;12.74;100.00;98343.44;5073022;28;20020;-79
2022/10/11 00:06:38;;;;;;;28.45;17.90;;;;;;;12.76;100.00;98357.66;5072690;28;20111;-79
2022/10/11 00:09:04;;;;;;;35.22;18.17;;;;;;;12.74;100.00;98346.13;5072642;28;20032;-78
2022/10/11 00:11:30;;;;;;;33.70;18.90;;;;;;;12.68;100.00;98338.41;5072785;28;20032;-78
2022/10/11 00:13:56;;;;;;;34.00;17.63;;;;;;;12.64;100.00;98337.75;5060340;28;20454;-78
2022/10/11 00:16:21;;;;;;;34.58;17.77;;;;;;;12.64;100.00;98327.03;5052867;28;20032;-79
2022/10/11 00:18:47;;;;;;;42.53;19.45;;;;;;;12.50;100.00;98327.81;5052535;28;20075;-79
2022/10/11 00:21:14;;;;;;;33.35;19.33;;;;;;;12.48;100.00;98327.03;5067399;28;20457;-78
2022/10/11 00:23:40;;;;;;;32.60;19.08;;;;;;;12.44;100.00;98327.28;5071124;28;20106;-79
2022/10/11 00:26:08;;;;;;;31.67;18.17;;;;;;;12.49;100.00;98333.25;5059263;28;20028;-79
2022/10/11 00:28:34;;;;;;;32.15;18.80;;;;;;;12.39;100.00;98318.63;5068382;28;20038;-79
2022/10/11 00:31:00;;;;;;;28.60;18.20;;;;;;;12.44;100.00;98330.84;5072603;28;20691;-79
2022/10/11 00:33:26;;;;;;;34.35;19.40;;;;;;;12.33;100.00;98317.19;5072478;28;20035;-80
2022/10/11 00:35:51;;;;;;;38.85;19.10;;;;;;;12.27;100.00;98322.88;5089323;28;20541;-80
2022/10/11 00:38:17;;;;;;;36.20;19.95;;;;;;;12.28;100.00;98324.59;5057874;28;20037;-79
2022/10/11 00:40:43;;;;;;;33.33;19.27;;;;;;;12.33;100.00;98327.03;5052324;28;20048;-79
2022/10/11 00:43:23;;;;;;;31.58;19.27;;;;;;;12.32;100.00;98331.53;5056126;28;20024;-79
2022/10/11 00:45:55;;;;;;;33.45;19.52;;;;;;;12.30;100.00;98330.75;5072253;28;20035;-79
2022/10/11 00:48:26;;;;;;;32.73;19.97;;;;;;;12.33;100.00;98325.22;5082764;28;20064;-79
2022/10/11 00:50:54;;;;;;;29.48;18.17;;;;;;;12.31;100.00;98320.88;5069319;28;20263;-79
2022/10/11 00:53:21;;;;;;;34.80;20.13;;;;;;;12.39;100.00;98315.97;5062051;28;20028;-79
2022/10/11 00:55:53;;;;;;;33.00;20.48;;;;;;;12.35;100.00;98322.44;5059465;28;20062;-79
2022/10/11 00:58:20;;;;;;;35.28;19.95;;;;;;;12.30;100.00;98317.34;5070594;28;20025;-79
2022/10/11 01:00:46;;;;;;;36.22;20.05;;;;;;;12.29;100.00;98315.59;5069254;28;20103;-80
2022/10/11 01:03:12;;;;;;;34.42;20.58;;;;;;;12.23;100.00;98318.63;5066400;28;20039;-79
2022/10/11 01:05:38;;;;;;;39.63;20.52;;;;;;;12.25;100.00;98324.78;5075796;28;20032;-80
2022/10/11 01:08:05;;;;;;;37.10;20.35;;;;;;;12.30;100.00;98327.22;5075559;28;20050;-80
2022/10/11 01:10:31;;;;;;;36.38;20.67;;;;;;;12.25;100.00;98319.41;5079596;28;20385;-80
2022/10/11 01:13:34;;;;;;;36.65;20.65;;;;;;;12.29;100.00;98333.50;5065249;28;20032;-79
2022/10/11 01:16:27;;;;;;;37.42;20.67;;;;;;;12.31;100.00;98326.22;5071890;28;20081;-79
2022/10/11 01:19:19;;;;;;;36.85;19.90;;;;;;;12.31;100.00;98316.38;5072163;28;20468;-79
2022/10/11 01:21:52;;;;;;;36.15;20.15;;;;;;;12.35;100.00;98312.56;5086850;28;20031;-80
2022/10/11 01:24:36;;;;;;;35.17;20.90;;;;;;;12.21;100.00;98308.94;5070910;28;20024;-80
2022/10/11 01:27:38;;;;;;;35.40;21.23;;;;;;;12.23;100.00;98325.81;5088743;28;20028;-79
2022/10/11 01:30:17;;;;;;;37.55;22.55;;;;;;;12.18;100.00;98315.31;5060075;28;20025;-79
2022/10/11 01:32:56;;;;;;;37.78;21.17;;;;;;;12.20;100.00;98313.44;5078230;28;20029;-80
2022/10/11 01:35:41;;;;;;;39.10;22.02;;;;;;;12.17;100.00;98302.88;5080354;28;20033;-79
2022/10/11 01:38:25;;;;;;;39.28;21.63;;;;;;;12.16;100.00;98309.19;5071938;28;20130;-80
2022/10/11 01:41:06;;;;;;;37.97;21.15;;;;;;;12.22;100.00;98297.25;5092101;28;20040;-78
2022/10/11 01:43:33;;;;;;;35.95;20.27;;;;;;;12.21;100.00;98295.53;5063796;28;20027;-78
2022/10/11 01:46:00;;;;;;;32.50;20.42;;;;;;;12.17;100.00;98292.16;5071026;28;20111;-79
2022/10/11 01:48:25;;;;;;;36.42;20.05;;;;;;;12.18;100.00;98290.34;5072398;28;20058;-79
2022/10/11 01:50:53;;;;;;;34.75;19.80;;;;;;;12.24;100.00;98298.06;5061209;28;20023;-78
2022/10/11 01:53:53;;;;;;;34.75;19.85;;;;;;;12.20;100.00;98301.84;5090095;28;20428;-79
2022/10/11 01:56:33;;;;;;;34.45;19.45;;;;;;;12.07;100.00;98303.47;5071566;28;20093;-78
2022/10/11 01:59:05;;;;;;;31.40;19.15;;;;;;;11.94;100.00;98297.94;5071659;28;20029;-79
2022/10/11 02:01:44;;;;;;;35.57;19.23;;;;;;;11.84;100.00;98292.19;5074357;28;20115;-80
2022/10/11 02:04:22;;;;;;;33.85;18.50;;;;;;;11.77;100.00;98295.31;5091293;28;20298;-79
2022/10/11 02:07:21;;;;;;;29.63;18.90;;;;;;;11.76;100.00;98301.63;5065096;28;20056;-79
2022/10/11 02:09:54;;;;;;;37.03;20.83;;;;;;;11.73;100.00;98288.38;5064695;28;20479;-80
2022/10/11 02:12:27;;;;;;;35.10;19.80;;;;;;;11.73;100.00;98293.75;5080353;28;20135;-79
2022/10/11 02:14:53;;;;;;;33.92;20.83;;;;;;;11.71;100.00;98287.63;5074633;28;20081;-79
2022/10/11 02:17:26;;;;;;;35.53;20.10;;;;;;;11.71;100.00;98295.66;5074399;28;20028;-79
2022/10/11 02:19:53;;;;;;;35.30;20.95;;;;;;;11.79;100.00;98298.78;5092898;28;20028;-79
2022/10/11 02:22:33;;;;;;;34.22;19.35;;;;;;;11.86;100.00;98313.56;5074206;28;20044;-80
2022/10/11 02:25:02;;;;;;;36.83;20.48;;;;;;;11.95;100.00;98305.03;5057491;28;20024;-80
2022/10/11 02:27:30;;;;;;;34.28;19.85;;;;;;;11.95;100.00;98305.91;5055878;28;20086;-80
2022/10/11 02:29:57;;;;;;;33.42;19.70;;;;;;;11.99;100.00;98303.06;5054118;28;20107;-79
2022/10/11 02:32:24;;;;;;;39.55;21.17;;;;;;;11.88;100.00;98292.91;5071847;28;20415;-78
2022/10/11 02:34:53;;;;;;;41.30;22.20;;;;;;;12.02;100.00;98311.78;5074561;28;20086;-79
2022/10/11 02:37:37;;;;;;;41.78;22.63;;;;;;;12.08;100.00;98318.63;5090816;28;20022;-79
2022/10/11 02:40:14;;;;;;;36.13;21.58;;;;;;;12.18;100.00;98309.97;5090876;28;20040;-79
2022/10/11 02:42:47;;;;;;;37.45;22.20;;;;;;;12.22;100.00;98313.34;5062328;28;20408;-79
2022/10/11 02:45:23;;;;;;;37.58;22.02;;;;;;;12.16;100.00;98295.78;5053915;28;20024;-80
2022/10/11 02:47:48;;;;;;;35.78;20.00;;;;;;;12.22;100.00;98295.44;5053906;28;20035;-80
2022/10/11 02:50:14;;;;;;;36.17;20.42;;;;;;;12.22;100.00;98300.81;5053705;28;20032;-80
2022/10/11 02:52:40;;;;;;;32.50;19.38;;;;;;;12.26;100.00;98293.44;5070288;28;20032;-79
2022/10/11 02:55:06;;;;;;;32.13;18.48;;;;;;;12.33;100.00;98306.44;5070420;28;20051;-79
2022/10/11 02:57:32;;;;;;;40.35;19.45;;;;;;;12.37;100.00;98289.19;5053540;28;20029;-79
2022/10/11 02:59:57;;;;;;;39.17;20.55;;;;;;;12.44;100.00;98293.28;5070391;28;20052;-79
2022/10/11 03:02:23;;;;;;;36.65;19.35;;;;;;;12.52;100.00;98284.75;5053497;28;20017;-77
2022/10/11 03:04:49;;;;;;;41.75;20.38;;;;;;;12.48;100.00;98276.06;5070386;28;20038;-79
2022/10/11 03:07:14;;;;;;;42.10;21.15;;;;;;;12.46;100.00;98280.63;5053358;28;20480;-78
2022/10/11 03:09:40;;;;;;;45.80;20.02;;;;;;;12.51;100.00;98283.06;5051246;28;20036;-79
2022/10/11 03:12:06;;;;;;;41.45;20.80;;;;;;;12.42;100.00;98267.47;5033357;28;20033;-79
2022/10/11 03:14:31;;;;;;;42.95;21.60;;;;;;;12.54;100.00;98265.91;5033393;28;20445;-79
2022/10/11 03:16:58;;;;;;;40.55;20.42;;;;;;;12.61;100.00;98256.53;5036214;28;20032;-78
2022/10/11 03:19:24;;;;;;;35.90;20.05;;;;;;;12.64;100.00;98254.56;5049983;28;20503;-79
2022/10/11 03:21:50;;;;;;;37.83;18.08;;;;;;;12.71;100.00;98247.84;5047679;28;20017;-80
2022/10/11 03:24:20;;;;;;;48.13;24.35;;;;;;;12.71;100.00;98255.03;5053181;28;20020;-79
2022/10/11 03:26:46;;;;;;;33.78;20.17;;;;;;;12.73;100.00;98251.31;5052960;28;20020;-78
2022/10/11 03:29:11;;;;;;;36.47;20.02;;;;;;;12.75;100.00;98240.47;5061604;28;20024;-79
2022/10/11 03:31:37;;;;;;;39.85;20.73;;;;;;;12.75;100.00;98243.16;5061375;28;20441;-79
2022/10/11 03:34:02;;;;;;;29.73;17.52;;;;;;;12.75;100.00;98235.09;5049770;28;20408;-79
2022/10/11 03:36:28;;;;;;;32.22;17.17;;;;;;;12.71;100.00;98230.88;5040015;28;20485;-79
2022/10/11 03:38:53;;;;;;;36.15;19.38;;;;;;;12.73;100.00;98239.72;5050008;28;20111;-78
2022/10/11 03:41:19;;;;;;;32.42;16.40;;;;;;;12.77;100.00;98230.50;5060202;28;20057;-78
2022/10/11 03:43:46;;;;;;;32.58;18.13;;;;;;;12.73;100.00;98226.28;5052953;28;20106;-78
2022/10/11 03:46:12;;;;;;;36.83;18.25;;;;;;;12.77;100.00;98242.09;5068186;28;20028;-78
2022/10/11 03:48:37;;;;;;;34.78;19.73;;;;;;;12.71;100.00;98237.09;5072664;28;20042;-80
2022/10/11 03:51:03;;;;;;;39.40;20.23;;;;;;;12.69;100.00;98230.09;5066185;28;20115;-79
2022/10/11 03:53:28;;;;;;;36.10;20.75;;;;;;;12.62;100.00;98226.03;5072826;28;20035;-79
2022/10/11 03:55:55;;;;;;;34.05;20.05;;;;;;;12.61;100.00;98230.56;5072945;28;20038;-80
2022/10/11 03:58:21;;;;;;;33.78;20.40;;;;;;;12.59;100.00;98210.13;5089702;28;20411;-79
2022/10/11 04:00:47;;;;;;;39.95;21.08;;;;;;;12.50;100.00;98211.53;5072650;28;20028;-78
2022/10/11 04:03:12;;;;;;;43.97;23.25;;;;;;;12.50;100.00;98215.09;5083316;28;20012;-79
2022/10/11 04:05:38;;;;;;;39.47;22.25;;;;;;;12.47;100.00;98223.31;5061442;28;20412;-82
2022/10/11 04:08:06;;;;;;;38.08;22.60;;;;;;;12.43;100.00;98221.75;5066572;28;20384;-80
2022/10/11 04:10:32;;;;;;;44.28;24.85;;;;;;;12.44;100.00;98215.47;5071745;28;20089;-80
2022/10/11 04:12:58;;;;;;;38.60;21.15;;;;;;;12.43;100.00;98216.41;5086708;28;20028;-82
2022/10/11 04:15:24;;;;;;;42.85;23.27;;;;;;;12.42;100.00;98220.06;5063298;28;20479;-79
2022/10/11 04:17:49;;;;;;;44.75;24.77;;;;;;;12.46;100.00;98229.63;5073529;28;20040;-83
2022/10/11 04:20:15;;;;;;;48.33;24.80;;;;;;;12.49;100.00;98225.91;5078482;28;20109;-84
2022/10/11 04:22:41;;;;;;;53.38;25.40;;;;;;;12.46;100.00;98224.28;5084519;28;20502;-83
2022/10/11 04:25:07;;;;;;;54.67;23.98;;;;;;;12.38;100.00;98220.31;5066140;28;20103;-82
2022/10/11 04:27:33;;;;;;;48.92;23.77;;;;;;;12.40;100.00;98224.63;5065952;28;20111;-82
2022/10/11 04:29:59;;;;;;;45.13;22.88;;;;;;;12.35;100.00;98207.94;5080512;28;20051;-83
2022/10/11 04:32:25;;;;;;;45.60;22.65;;;;;;;12.52;100.00;98231.09;5060281;28;20029;-85
2022/10/11 04:34:51;;;;;;;45.00;22.25;;;;;;;12.49;100.00;98234.81;5064420;28;20116;-82
2022/10/11 04:37:17;;;;;;;38.10;22.08;;;;;;;12.43;100.00;98227.13;5067564;28;20031;-83
2022/10/11 04:39:42;;;;;;;60.72;34.55;;;;;;;12.44;100.00;98228.88;5063223;28;20036;-82
2022/10/11 04:42:08;;;;;;;45.47;22.45;;;;;;;12.40;100.00;98227.31;5095012;28;20120;-83
2022/10/11 04:44:34;;;;;;;41.58;22.60;;;;;;;12.45;100.00;98230.59;5091108;28;20434;-82
2022/10/11 04:47:00;;;;;;;39.60;19.85;;;;;;;12.55;100.00;98230.06;5083326;28;20024;-79
2022/10/11 04:49:26;;;;;;;37.78;21.48;;;;;;;12.59;100.00;98226.22;5087562;28;20487;-79
2022/10/11 04:51:51;;;;;;;50.03;21.70;;;;;;;12.66;100.00;98232.97;5059195;28;20089;-79
2022/10/11 04:54:17;;;;;;;37.55;22.02;;;;;;;12.71;100.00;98230.88;5062490;28;20051;-78
2022/10/11 04:56:43;;;;;;;43.90;21.45;;;;;;;12.60;100.00;98217.22;5069798;28;20028;-78
2022/10/11 04:59:08;;;;;;;45.08;22.35;;;;;;;12.66;100.00;98219.53;5057735;28;20021;-78
2022/10/11 05:01:34;;;;;;;46.75;23.25;;;;;;;12.73;100.00;98229.84;5070145;28;20546;-78
2022/10/11 05:04:00;;;;;;;41.85;20.08;;;;;;;12.78;100.00;98226.88;5068193;28;20016;-79
2022/10/11 05:06:27;;;;;;;39.22;21.23;;;;;;;12.89;100.00;98217.22;5068708;28;20068;-79
2022/10/11 05:08:53;;;;;;;42.25;22.58;;;;;;;12.90;100.00;98220.75;5066692;28;20032;-78
2022/10/11 05:11:19;;;;;;;43.47;21.02;;;;;;;13.03;100.00;98232.50;5091706;28;20039;-77
2022/10/11 05:13:45;;;;;;;31.17;19.30;;;;;;;13.00;100.00;98222.81;5067583;28;20024;-78
2022/10/11 05:16:11;;;;;;;35.63;19.35;;;;;;;13.21;100.00;98226.03;5092393;28;20027;-79
2022/10/11 05:18:38;;;;;;;32.72;19.13;;;;;;;13.37;100.00;98242.94;5075504;28;20385;-78
2022/10/11 05:21:05;;;;;;;39.40;20.25;;;;;;;13.45;100.00;98237.94;5066835;28;20024;-79
2022/10/11 05:23:32;;;;;;;51.92;20.75;;;;;;;13.56;100.00;98231.91;5067703;28;20028;-79
2022/10/11 05:25:58;;;;;;;42.75;20.10;;;;;;;13.65;100.00;98225.06;5063438;28;20031;-79
2022/10/11 05:28:23;;;;;;;61.83;21.80;;;;;;;13.60;100.00;98216.44;5067756;28;20034;-79
2022/10/11 05:30:49;;;;;;;47.97;22.70;;;;;;;13.61;100.00;98218.16;5067833;28;20028;-81
2022/10/11 05:33:14;;;;;;;59.92;29.40;;;;;;;13.63;100.00;98213.56;5074456;28;20480;-79
2022/10/11 05:35:40;;;;;;;59.10;28.02;;;;;;;13.74;100.00;98219.97;5069054;28;20021;-79
2022/10/11 05:38:06;;;;;;;58.08;26.10;;;;;;;13.77;100.00;98225.16;5055017;28;20412;-80
2022/10/11 05:40:32;;;;;;;56.65;24.65;;;;;;;13.86;100.00;98207.56;5078265;28;20071;-79
2022/10/11 05:42:58;;;;;;;66.25;25.08;;;;;;;13.85;100.00;98208.53;5073570;28;20107;-80
2022/10/11 05:45:23;;;;;;;43.88;24.33;;;;;;;13.88;100.00;98209.19;5055066;28;20099;-78
2022/10/11 05:47:49;;;;;;;59.90;25.75;;;;;;;13.88;100.00;98201.13;5054160;28;20389;-79
2022/10/11 05:50:14;;;;;;;48.05;24.75;;;;;;;13.85;100.00;98201.31;5079998;28;20395;-79
2022/10/11 05:52:40;;;;;;;60.22;24.23;;;;;;;13.88;100.00;98200.25;5055120;28;20029;-78
2022/10/11 05:55:06;;;;;;;53.90;24.20;;;;;;;13.82;100.00;98189.88;5065227;28;20035;-78
2022/10/11 05:57:31;;;;;;;68.47;22.55;;;;;;;13.85;100.00;98197.75;5077551;28;20036;-78
2022/10/11 05:59:57;;;;;;;49.40;22.13;;;;;;;13.95;100.00;98190.81;5054592;28;20128;-79
2022/10/11 06:02:22;;;;;;;51.17;20.60;;;;;;;14.09;100.00;98188.09;5082521;28;20026;-78
2022/10/11 06:04:48;;;;;;;48.17;22.20;;;;;;;14.32;100.00;98192.81;5081754;28;20055;-78
2022/10/11 06:07:13;;;;;;;55.58;22.38;;;;;;;14.43;100.00;98182.22;5074407;28;20058;-78
2022/10/11 06:09:39;;;;;;;64.82;26.58;;;;;;;14.77;100.00;98185.31;5074603;28;20132;-78
2022/10/11 06:12:05;;;;;;;99.45;41.45;;;;;;;14.97;100.00;98183.00;5074197;28;20047;-79
2022/10/11 06:14:31;;;;;;;80.20;37.67;;;;;;;15.06;100.00;98173.41;5086222;28;20134;-78
2022/10/11 06:16:56;;;;;;;81.90;41.40;;;;;;;15.30;100.00;98186.97;5070933;28;20077;-78
2022/10/11 06:19:22;;;;;;;78.55;33.60;;;;;;;15.39;100.00;98176.41;5054147;28;20040;-77
2022/10/11 06:21:48;;;;;;;52.15;25.05;;;;;;;15.66;100.00;98176.28;5054435;28;20502;-78
2022/10/11 06:24:14;;;;;;;47.15;23.45;;;;;;;15.62;100.00;98164.88;5054036;28;20035;-78
2022/10/11 06:26:39;;;;;;;54.45;23.17;;;;;;;15.75;100.00;98161.28;5058816;28;20115;-78
2022/10/11 06:29:05;;;;;;;45.13;21.95;;;;;;;15.88;100.00;98167.50;5074161;28;20117;-77
2022/10/11 06:31:31;;;;;;;44.75;21.02;;;;;;;16.00;100.00;98158.50;5073989;28;20028;-77
2022/10/11 06:33:59;;;;;;;49.03;23.63;;;;;;;16.18;100.00;98149.06;5073939;28;20139;-77
2022/10/11 06:36:25;;;;;;;50.08;23.75;;;;;;;16.23;100.00;98144.16;5064470;28;20396;-78
2022/10/11 06:38:52;;;;;;;55.25;25.02;;;;;;;16.54;100.00;98138.19;5074147;28;20062;-78
2022/10/11 06:41:24;;;;;;;48.50;21.98;;;;;;;16.35;100.00;98127.03;5072397;28;20471;-78
2022/10/11 06:43:50;;;;;;;45.58;23.05;;;;;;;16.62;100.00;98133.06;5084725;28;20016;-78
2022/10/11 06:46:17;;;;;;;46.10;22.70;;;;;;;16.96;100.00;98141.25;5073199;28;20487;-79
2022/10/11 06:48:44;;;;;;;45.92;21.80;;;;;;;17.08;100.00;98142.97;5058307;28;20106;-78
2022/10/11 06:51:11;;;;;;;33.58;18.40;;;;;;;17.24;100.00;98129.97;5073922;28;20024;-78
2022/10/11 06:53:36;;;;;;;34.58;18.10;;;;;;;17.16;100.00;98122.50;5090467;28;20016;-78
2022/10/11 06:56:07;;;;;;;37.28;18.88;;;;;;;17.18;100.00;98116.94;5058603;28;20030;-79
2022/10/11 06:58:33;;;;;;;38.65;19.60;;;;;;;17.39;100.00;98115.22;5069621;28;20474;-78
2022/10/11 07:01:03;;;;;;;36.60;19.73;;;;;;;17.35;100.00;98113.75;5084774;28;20103;-78
2022/10/11 07:03:29;;;;;;;45.85;20.58;;;;;;;17.54;100.00;98108.56;5073539;28;20393;-78
2022/10/11 07:06:02;;;;;;;34.10;19.65;;;;;;;17.33;100.00;98102.19;5059866;28;20066;-78
2022/10/11 07:08:28;;;;;;;33.80;16.80;;;;;;;17.15;100.00;98079.34;5053311;28;20105;-78
2022/10/11 07:10:59;;;;;;;32.15;18.73;;;;;;;17.22;100.00;98102.22;5083691;28;20421;-79
2022/10/11 07:13:25;;;;;;;30.80;19.20;;;;;;;17.23;100.00;98079.56;5055456;28;20519;-80
2022/10/11 07:15:50;;;;;;;39.58;18.00;;;;;;;17.41;100.00;98080.78;5053653;28;20271;-78
2022/10/11 07:18:16;;;;;;;28.15;16.17;;;;;;;17.34;100.00;98077.75;5053458;28;20032;-78
2022/10/11 07:20:41;;;;;;;37.38;15.48;;;;;;;17.39;100.00;98074.66;5086783;28;20428;-79
2022/10/11 07:23:07;;;;;;;32.42;16.20;;;;;;;17.07;100.00;98052.91;5053468;28;20013;-78
2022/10/11 07:25:32;;;;;;;26.98;15.70;;;;;;;16.99;100.00;98049.97;5063250;28;20038;-78
2022/10/11 07:27:58;;;;;;;28.33;15.45;;;;;;;16.92;100.00;98053.28;5059612;28;20017;-79
2022/10/11 07:30:24;;;;;;;27.48;14.73;;;;;;;16.79;100.00;98053.41;5069684;28;20024;-78
2022/10/11 07:32:49;;;;;;;24.70;16.17;;;;;;;16.63;100.00;98047.47;5056776;28;20032;-79
2022/10/11 07:35:15;;;;;;;35.47;16.00;;;;;;;16.78;100.00;98044.44;5082573;28;20064;-78
2022/10/11 07:37:40;;;;;;;25.45;15.60;;;;;;;16.92;100.00;98045.19;5088950;28;20051;-78
2022/10/11 07:40:09;;;;;;;25.17;15.05;;;;;;;16.83;100.00;98051.31;5089730;28;20024;-78
2022/10/11 07:42:35;;;;;;;30.08;15.77;;;;;;;17.05;100.00;98054.00;5073153;28;20028;-78
2022/10/11 07:45:01;;;;;;;26.90;14.10;;;;;;;16.88;100.00;98032.88;5072966;28;20016;-78
2022/10/11 07:47:26;;;;;;;21.25;13.13;;;;;;;17.01;100.00;98034.47;5072861;28;20518;-78
2022/10/11 07:49:52;;;;;;;23.75;12.57;;;;;;;17.21;100.00;98047.25;5072834;28;20024;-78
2022/10/11 07:52:17;;;;;;;20.25;12.85;;;;;;;17.33;100.00;98050.81;5074294;28;20032;-78
2022/10/11 07:54:43;;;;;;;23.98;13.45;;;;;;;17.34;100.00;98042.59;5052705;28;20036;-79
2022/10/11 07:57:08;;;;;;;40.15;13.07;;;;;;;17.46;100.00;98042.56;5052854;28;20067;-79
2022/10/11 07:59:34;;;;;;;26.92;13.68;;;;;;;17.66;98.30;98036.38;5070184;28;20088;-79
2022/10/11 08:01:59;;;;;;;33.63;14.60;;;;;;;17.95;96.03;98037.56;5073017;28;20031;-79
2022/10/11 08:04:25;;;;;;;25.23;13.88;;;;;;;18.16;94.31;98034.88;5072723;28;20029;-79
2022/10/11 08:06:50;;;;;;;30.02;14.77;;;;;;;18.20;93.83;98025.50;5061192;28;20466;-79
2022/10/11 08:09:16;;;;;;;28.80;13.05;;;;;;;18.23;91.78;98019.84;5052740;28;20063;-79
2022/10/11 08:11:41;;;;;;;22.33;13.68;;;;;;;18.33;90.50;98026.19;5073975;28;20027;-79
2022/10/11 08:14:07;;;;;;;25.02;13.32;;;;;;;18.24;91.14;98035.09;5076872;28;20024;-79
2022/10/11 08:16:34;;;;;;;21.50;12.70;;;;;;;18.30;91.63;98034.56;5076668;28;20092;-78
2022/10/11 08:19:01;;;;;;;23.27;12.82;;;;;;;18.13;90.85;98018.88;5072764;28;20025;-79
2022/10/11 08:21:27;;;;;;;24.98;13.43;;;;;;;18.05;91.93;98024.09;5073382;28;20024;-78
2022/10/11 08:23:53;;;;;;;23.10;14.05;;;;;;;17.87;91.81;98023.81;5075959;28;20501;-79
2022/10/11 08:26:19;;;;;;;24.02;13.82;;;;;;;17.74;93.68;98023.97;5068373;28;20032;-79
2022/10/11 08:28:45;;;;;;;23.02;14.45;;;;;;;17.79;93.05;98031.69;5059801;28;20024;-79
2022/10/11 08:31:12;;;;;;;26.55;13.43;;;;;;;17.68;92.91;98020.91;5071507;28;20177;-79
2022/10/11 08:33:37;;;;;;;26.17;13.63;;;;;;;17.66;94.51;98006.63;5081722;28;20059;-79
2022/10/11 08:36:04;;;;;;;35.83;15.15;;;;;;;17.68;95.67;98016.38;5076302;28;20071;-79
2022/10/11 08:38:30;;;;;;;25.75;15.73;;;;;;;17.70;96.17;98011.69;5076410;28;20032;-79
2022/10/11 08:40:58;;;;;;;24.00;14.90;;;;;;;17.91;94.23;98024.38;5064881;28;20044;-79
2022/10/11 08:43:38;;;;;;;29.30;16.70;;;;;;;17.81;96.38;98021.63;5073111;28;20024;-79
2022/10/11 08:46:05;;;;;;;28.45;15.80;;;;;;;17.96;96.86;98017.63;5072677;28;20039;-79
2022/10/11 08:48:40;;;;;;;26.20;15.55;;;;;;;18.16;96.45;98029.47;5084655;28;20024;-79
2022/10/11 08:51:24;;;;;;;27.40;15.18;;;;;;;18.63;93.84;98042.53;5073854;28;20020;-79
2022/10/11 08:53:57;;;;;;;30.02;15.73;;;;;;;19.08;90.97;98032.22;5092907;28;20059;-79
2022/10/11 08:56:23;;;;;;;37.05;17.73;;;;;;;19.18;89.08;98014.16;5087002;28;20028;-79
2022/10/11 08:59:29;;;;;;;43.50;17.13;;;;;;;18.74;91.38;98020.78;5078047;28;20024;-79
2022/10/11 09:02:15;;;;;;;25.25;16.13;;;;;;;18.77;90.96;98015.09;5061195;28;20059;-79
2022/10/11 09:04:41;;;;;;;34.80;16.27;;;;;;;19.01;90.26;98016.66;5069234;28;20107;-76
2022/10/11 09:07:15;;;;;;;26.80;14.63;;;;;;;19.34;87.22;98016.34;5058925;28;20181;-77
2022/10/11 09:09:54;;;;;;;25.70;13.73;;;;;;;19.29;86.58;98007.75;5092723;28;20023;-79
2022/10/11 09:12:24;;;;;;;28.83;13.70;;;;;;;19.57;85.03;98020.56;5075709;28;20032;-78
2022/10/11 09:14:59;;;;;;;29.00;14.07;;;;;;;19.93;83.64;98021.78;5075477;28;20115;-78
2022/10/11 09:17:37;;;;;;;23.27;12.57;;;;;;;20.10;80.61;97995.75;5075377;28;20028;-79
2022/10/11 09:20:27;;;;;;;32.63;14.32;;;;;;;20.33;79.86;97997.25;5084004;28;20119;-79
2022/10/11 09:23:15;;;;;;;33.28;15.05;;;;;;;20.82;77.72;97994.28;5080769;28;20020;-79
2022/10/11 09:26:06;;;;;;;29.75;12.93;;;;;;;21.43;74.63;98001.91;5069925;28;20053;-79
2022/10/11 09:28:52;;;;;;;18.50;11.25;;;;;;;21.46;73.76;97991.59;5075350;28;20471;-77
2022/10/11 09:31:18;;;;;;;28.88;12.25;;;;;;;21.77;71.67;97985.81;5080788;28;20060;-78
2022/10/11 09:33:48;;;;;;;21.90;12.55;;;;;;;21.82;70.77;97976.16;5055229;28;20606;-77
2022/10/11 09:36:49;;;;;;;23.52;12.90;;;;;;;21.45;72.61;97981.69;5071646;28;20060;-78
2022/10/11 09:39:28;;;;;;;26.40;13.40;;;;;;;21.79;71.15;97979.19;5051100;28;20117;-78
2022/10/11 09:42:00;;;;;;;24.42;12.40;;;;;;;21.88;69.83;97961.94;5089780;28;20441;-78
2022/10/11 09:44:29;;;;;;;32.67;13.07;;;;;;;21.78;70.04;97965.75;5060199;28;20020;-77
2022/10/11 09:46:56;;;;;;;20.42;11.68;;;;;;;22.04;68.90;97962.13;5075008;28;20047;-77
2022/10/11 09:49:25;;;;;;;27.33;12.95;;;;;;;21.92;69.07;97951.59;5062548;28;20020;-77
2022/10/11 09:51:54;;;;;;;20.88;11.57;;;;;;;21.83;68.80;97952.50;5071849;28;20028;-78
2022/10/11 09:54:26;;;;;;;26.02;12.95;;;;;;;21.59;69.77;97944.94;5055094;28;20037;-79
2022/10/11 09:56:52;;;;;;;33.72;12.98;;;;;;;21.21;70.61;97939.72;5080161;28;20398;-79
2022/10/11 09:59:20;;;;;;;39.50;13.30;;;;;;;21.57;70.36;97949.66;5063929;28;20032;-79
2022/10/11 10:01:45;;;;;;;24.10;12.27;;;;;;;21.57;70.12;97936.91;5079102;28;20048;-77
2022/10/11 10:04:13;;;;;;;20.30;11.85;;;;;;;21.60;69.20;97942.06;5071417;28;20514;-78
2022/10/11 10:06:39;;;;;;;19.45;11.88;;;;;;;21.48;69.24;97931.53;5054707;28;20373;-77
2022/10/11 10:09:25;;;;;;;23.48;11.73;;;;;;;21.54;69.59;97934.50;5064383;28;20034;-77
2022/10/11 10:11:52;;;;;;;29.88;12.30;;;;;;;21.70;69.09;97935.69;5075358;28;20534;-77
2022/10/11 10:14:27;;;;;;;22.58;11.15;;;;;;;21.94;67.78;97928.63;5054531;28;20488;-78
2022/10/11 10:17:12;;;;;;;19.67;11.10;;;;;;;21.66;67.77;97921.50;5066879;28;20032;-79
2022/10/11 10:19:45;;;;;;;16.40;10.60;;;;;;;21.80;67.81;97926.44;5071208;28;20034;-78
2022/10/11 10:22:22;;;;;;;19.88;11.77;;;;;;;22.08;66.93;97919.91;5054207;28;20036;-78
2022/10/11 10:24:49;;;;;;;20.23;12.20;;;;;;;22.05;66.39;97920.22;5070203;28;20028;-79
2022/10/11 10:27:25;;;;;;;18.27;11.55;;;;;;;22.36;65.16;97919.78;5085621;28;20028;-79
2022/10/11 10:30:12;;;;;;;19.23;11.43;;;;;;;22.37;64.88;97914.16;5078617;28;20190;-78
2022/10/11 10:33:03;;;;;;;15.68;10.68;;;;;;;22.33;64.77;97906.47;5084544;28;20107;-78
2022/10/11 10:35:40;;;;;;;20.40;12.15;;;;;;;21.72;66.13;97896.38;5073212;28;20050;-78
2022/10/11 10:38:11;;;;;;;18.08;11.38;;;;;;;22.11;65.56;97897.81;5062284;28;20090;-80
2022/10/11 10:40:39;;;;;;;19.25;13.38;;;;;;;22.85;64.21;97913.66;5053881;28;20052;-78
2022/10/11 10:43:14;;;;;;;15.60;10.88;;;;;;;22.88;61.84;97890.66;5070371;28;20450;-79
2022/10/11 10:46:04;;;;;;;22.63;12.02;;;;;;;23.02;62.17;97896.34;5054357;28;20032;-77
2022/10/11 10:48:39;;;;;;;22.88;11.05;;;;;;;22.95;62.89;97902.63;5053895;28;20060;-78
2022/10/11 10:51:21;;;;;;;20.92;11.57;;;;;;;23.06;62.33;97903.19;5054058;28;20027;-79
2022/10/11 10:53:48;;;;;;;;;;;;;;;23.60;61.05;97903.72;5059088;28;20505;-78
2022/10/11 10:56:24;;;;;;;24.48;11.57;;;;;;;23.50;60.34;97881.19;5090862;28;19912;-78
2022/10/11 10:59:09;;;;;;;17.95;10.55;;;;;;;23.30;61.23;97891.50;5072353;28;20023;-79
2022/10/11 11:01:52;;;;;;;18.88;12.32;;;;;;;23.39;61.15;97889.63;5072076;28;20036;-79
2022/10/11 11:04:23;;;;;;;17.05;11.48;;;;;;;22.96;62.59;97877.03;5053397;28;20021;-79
2022/10/11 11:06:52;;;;;;;21.17;12.37;;;;;;;22.38;64.18;97890.50;5081161;28;20575;-80
2022/10/11 11:09:23;;;;;;;19.13;11.52;;;;;;;22.15;64.16;97866.47;5053520;28;20036;-79
2022/10/11 11:12:16;;;;;;;27.05;12.05;;;;;;;22.71;63.11;97891.56;5070039;28;20131;-78
2022/10/11 11:14:51;;;;;;;37.67;13.70;;;;;;;23.48;60.61;97878.59;5072508;28;20400;-78
2022/10/11 11:17:33;;;;;;;23.60;11.57;;;;;;;23.80;59.41;97869.59;5076989;28;20415;-78
2022/10/11 11:19:58;;;;;;;;;;;;;;;24.25;57.44;97874.56;5091952;28;20032;-78
2022/10/11 11:22:43;;;;;;;20.52;11.25;;;;;;;23.79;58.22;97859.69;5082686;28;19914;-78
2022/10/11 11:25:18;;;;;;;23.52;10.60;;;;;;;23.27;59.83;97853.59;5069920;28;20503;-79